Sun Excelsior — 3EUF9 — position and weather

sailwx.info

Track history (hours):
 
Tides and Currents Weather Stations Pressure Air Temp Water Temp Dewpoint Dewpoint Depression Visibility Wind Speed Wind Dir Waves Ship Positions

Sun Excelsior

Last reported at 2017-Oct-10 07:14 UTC. Time now 2017-Oct-20 16:14 UTC.
Position N 46°13' W 125°58'.
Warning: this ship's position is 10 days out of date.

Length 224 m; draft 13.5 m.

Type: Cargo ship. MMSI: 370737000.

Date/timePositionNaut miles runAvg speedWind from/ knotsBaromVisibWave heightAir tempDewpointWater temp
2017-Oct-10 07:14N 46°13' W 125°58'312.5
2017-Oct-10 07:00N 46°13' W 125°54'712.5
2017-Oct-10 06:28N 46°13' W 125°45'712.6
2017-Oct-10 05:54N 46°13' W 125°34'512.4
2017-Oct-10 05:31N 46°12' W 125°27'612.2
2017-Oct-10 05:00N 46°12' W 125°19'612.2
2017-Oct-10 04:30N 46°12' W 125°10'812.2
2017-Oct-10 03:50N 46°12' W 124°58'412.6
2017-Oct-10 03:30N 46°12' W 124°52'712.4
2017-Oct-10 02:56N 46°12' W 124°42'512.0
2017-Oct-10 02:31N 46°12' W 124°34'612.1
2017-Oct-10 02:01N 46°12' W 124°25'1012.0
2017-Oct-10 01:11N 46°13' W 124°11'212.6
2017-Oct-10 01:01N 46°14' W 124°08'611.7
2017-Oct-10 00:30N 46°15' W 123°60'611.1
2017-Oct-10 00:01N 46°11' W 123°53'4 8.9
2017-Oct-09 23:30N 46°13' W 123°47'5 9.8
2017-Oct-09 23:01N 46°15' W 123°41'5 9.8
2017-Oct-09 22:31N 46°15' W 123°34'4 8.9
2017-Oct-09 22:00N 46°16' W 123°27'5 9.2
2017-Oct-09 21:31N 46°11' W 123°26'4 7.7
2017-Oct-09 21:01N 46°09' W 123°22'510.0
2017-Oct-09 20:30N 46°10' W 123°15'510.7
2017-Oct-09 20:00N 46°11' W 123°07'510.6
2017-Oct-09 19:30N 46°08' W 123°01'510.2
2017-Oct-09 19:00N 46°05' W 122°55'510.0
2017-Oct-09 18:30N 46°01' W 122°51'2 3.4
2017-Oct-09 17:55N 45°59' W 122°50'0 0.0
2017-Oct-09 17:28N 45°59' W 122°50'0 0.0
2017-Oct-09 16:58N 45°59' W 122°50'0 0.0
2017-Oct-09 16:22N 45°59' W 122°50'0 0.0
2017-Oct-09 15:58N 45°59' W 122°50'0 0.0
2017-Oct-09 15:28N 45°59' W 122°50'0 0.0
2017-Oct-09 14:55N 45°59' W 122°50'0 0.0
2017-Oct-09 14:28N 45°59' W 122°50'0 0.0
2017-Oct-09 13:58N 45°59' W 122°50'0 0.0
2017-Oct-09 13:22N 45°59' W 122°50'0 0.0
2017-Oct-09 12:52N 45°59' W 122°50'0 0.0
2017-Oct-09 12:28N 45°59' W 122°50'0 0.0
2017-Oct-09 11:58N 45°59' W 122°50'0 0.0
2017-Oct-09 11:28N 45°59' W 122°50'0 0.0
2017-Oct-09 10:58N 45°59' W 122°50'0 0.0
2017-Oct-09 10:10N 45°59' W 122°50'0 0.0
2017-Oct-09 09:58N 45°59' W 122°50'0 0.0
2017-Oct-09 09:10N 45°59' W 122°50'0 0.0
2017-Oct-09 08:55N 45°59' W 122°50'0 0.0
2017-Oct-09 08:28N 45°59' W 122°50'0 0.0
2017-Oct-09 07:58N 45°59' W 122°50'0 0.0
2017-Oct-09 07:28N 45°59' W 122°50'0 0.0
2017-Oct-09 06:58N 45°59' W 122°50'0 0.0
2017-Oct-09 06:28N 45°59' W 122°50'0 0.0
2017-Oct-09 05:58N 45°59' W 122°50'0 0.0
2017-Oct-09 05:25N 45°59' W 122°50'0 0.0
2017-Oct-09 04:58N 45°59' W 122°50'0 0.0
2017-Oct-09 04:25N 45°59' W 122°50'0 0.0
2017-Oct-09 03:56N 45°59' W 122°50'0 0.0
2017-Oct-09 03:28N 45°59' W 122°50'0 0.0
2017-Oct-09 02:58N 45°59' W 122°50'0 0.0
2017-Oct-09 02:28N 45°59' W 122°50'0 0.0
2017-Oct-09 01:58N 45°59' W 122°50'0 0.0
2017-Oct-09 01:28N 45°59' W 122°50'0 0.0
2017-Oct-09 00:43N 45°59' W 122°50'0 0.0
2017-Oct-09 00:25N 45°59' W 122°50'0 0.0
2017-Oct-08 23:58N 45°59' W 122°50'0 0.0
2017-Oct-08 23:28N 45°59' W 122°50'0 0.0
2017-Oct-08 22:49N 45°59' W 122°50'0 0.0
2017-Oct-08 22:13N 45°59' W 122°50'0 0.0
2017-Oct-08 21:55N 45°59' W 122°50'0 0.0
2017-Oct-08 21:25N 45°59' W 122°50'0 0.0
2017-Oct-08 20:52N 45°59' W 122°50'0 0.0
2017-Oct-08 20:28N 45°59' W 122°50'0 0.0
2017-Oct-08 19:58N 45°59' W 122°50'0 0.0
2017-Oct-08 19:25N 45°59' W 122°50'0 0.0
2017-Oct-08 18:58N 45°59' W 122°50'0 0.0
2017-Oct-08 18:25N 45°59' W 122°50'0 0.0
2017-Oct-08 17:46N 45°59' W 122°50'0 0.0
2017-Oct-08 17:28N 45°59' W 122°50'0 0.0
2017-Oct-08 16:55N 45°59' W 122°50'0 0.0
2017-Oct-08 16:28N 45°59' W 122°50'0 0.0
2017-Oct-08 15:58N 45°59' W 122°50'0 0.0
2017-Oct-08 15:28N 45°59' W 122°50'0 0.0
2017-Oct-08 14:46N 45°59' W 122°50'0 0.0
2017-Oct-08 14:19N 45°59' W 122°50'0 0.0
2017-Oct-08 13:58N 45°59' W 122°50'0 0.0
2017-Oct-08 13:22N 45°59' W 122°50'0 0.0
2017-Oct-08 12:52N 45°59' W 122°50'0 0.0
2017-Oct-08 12:28N 45°59' W 122°50'0 0.0
2017-Oct-08 11:58N 45°59' W 122°50'0 0.0
2017-Oct-08 11:22N 45°59' W 122°50'0 0.0
2017-Oct-08 10:58N 45°59' W 122°50'0 0.0
2017-Oct-08 10:25N 45°59' W 122°50'0 0.0
2017-Oct-08 09:58N 45°59' W 122°50'0 0.0
2017-Oct-08 09:28N 45°59' W 122°50'0 0.0
2017-Oct-08 08:58N 45°59' W 122°50'0 0.0
2017-Oct-08 08:19N 45°59' W 122°50'0 0.0
2017-Oct-08 07:55N 45°59' W 122°50'0 0.0
2017-Oct-08 07:28N 45°59' W 122°50'0 0.0
2017-Oct-08 06:58N 45°59' W 122°50'0 0.0
2017-Oct-08 06:28N 45°59' W 122°50'0 0.0
2017-Oct-08 05:58N 45°59' W 122°50'0 0.0
2017-Oct-08 05:28N 45°59' W 122°50'0 0.0
2017-Oct-08 04:55N 45°59' W 122°50'0 0.0
2017-Oct-08 04:28N 45°59' W 122°50'0 0.0
2017-Oct-08 03:58N 45°59' W 122°50'0 0.0
2017-Oct-08 03:13N 45°59' W 122°50'0 0.0
2017-Oct-08 02:58N 45°59' W 122°50'0 0.0
2017-Oct-08 02:25N 45°59' W 122°50'0 0.0
2017-Oct-08 01:58N 45°59' W 122°50'0 0.0
2017-Oct-08 01:28N 45°59' W 122°50'0 0.0
2017-Oct-08 00:55N 45°59' W 122°50'0 0.0
2017-Oct-08 00:25N 45°59' W 122°50'0 0.0
2017-Oct-07 23:55N 45°59' W 122°50'0 0.0
2017-Oct-07 23:28N 45°59' W 122°50'0 0.0
2017-Oct-07 22:58N 45°59' W 122°50'0 0.0
2017-Oct-07 22:28N 45°59' W 122°50'0 0.0
2017-Oct-07 21:55N 45°59' W 122°50'0 0.0
2017-Oct-07 21:28N 45°59' W 122°50'0 0.0
2017-Oct-07 20:58N 45°59' W 122°50'0 0.0
2017-Oct-07 20:28N 45°59' W 122°50'0 0.0
2017-Oct-07 19:58N 45°59' W 122°50'0 0.0
2017-Oct-07 19:25N 45°59' W 122°50'0 0.0
2017-Oct-07 18:58N 45°59' W 122°50'0 0.0
2017-Oct-07 18:28N 45°59' W 122°50'0 0.0
2017-Oct-07 17:58N 45°59' W 122°50'0 0.0
2017-Oct-07 15:55N 45°59' W 122°50'0 0.0
2017-Oct-07 15:28N 45°59' W 122°50'0 0.0
2017-Oct-07 14:58N 45°59' W 122°50'0 0.0
2017-Oct-07 13:43N 45°59' W 122°50'0 0.0
2017-Oct-07 13:28N 45°59' W 122°50'0 0.0
2017-Oct-07 12:55N 45°59' W 122°50'0 0.0
2017-Oct-07 12:30N 45°59' W 122°50'0 0.4
2017-Oct-07 12:00N 45°59' W 122°50'510.2
2017-Oct-07 11:30N 46°04' W 122°53'510.5
2017-Oct-07 11:01N 46°07' W 122°59'713.9
2017-Oct-07 10:30N 46°11' W 123°07'814.7
2017-Oct-07 10:00N 46°09' W 123°17'613.1
2017-Oct-07 09:31N 46°11' W 123°26'611.6
2017-Oct-07 09:01N 46°16' W 123°30'1113.8
2017-Oct-07 08:12N 46°13' W 123°45'210.0
2017-Oct-07 08:00N 46°12' W 123°48'0 0.2
2017-Oct-07 07:25N 46°13' W 123°48'0 0.1
2017-Oct-07 06:43N 46°13' W 123°48'0 0.0
2017-Oct-07 06:28N 46°13' W 123°48'0 0.0
2017-Oct-07 05:58N 46°13' W 123°48'0 0.1
2017-Oct-07 05:28N 46°13' W 123°48'0 0.4
2017-Oct-07 04:58N 46°13' W 123°48'0 0.2
2017-Oct-07 04:22N 46°12' W 123°48'0 0.0
2017-Oct-07 03:55N 46°12' W 123°48'0 0.0
2017-Oct-07 03:28N 46°12' W 123°48'0 0.0
2017-Oct-07 02:58N 46°12' W 123°48'0 0.0
2017-Oct-07 02:19N 46°12' W 123°48'0 0.0
2017-Oct-07 01:58N 46°12' W 123°48'0 0.1
2017-Oct-07 01:28N 46°12' W 123°48'0 0.0
2017-Oct-07 00:58N 46°12' W 123°48'0 0.0
2017-Oct-07 00:28N 46°12' W 123°48'0 0.0
2017-Oct-06 23:58N 46°12' W 123°48'0 0.0
2017-Oct-06 23:28N 46°12' W 123°48'0 0.2
2017-Oct-06 22:58N 46°12' W 123°48'0 0.4
2017-Oct-06 22:28N 46°13' W 123°48'0 0.0
2017-Oct-06 21:58N 46°13' W 123°48'0 0.0
2017-Oct-06 21:28N 46°13' W 123°48'0 0.0
2017-Oct-06 20:58N 46°13' W 123°48'0 0.0
2017-Oct-06 20:28N 46°13' W 123°48'0 0.0
2017-Oct-06 19:55N 46°13' W 123°48'0 0.0
2017-Oct-06 19:28N 46°13' W 123°48'0 0.0
2017-Oct-06 18:58N 46°13' W 123°48'0 0.0
2017-Oct-06 18:28N 46°13' W 123°48'0 0.0
2017-Oct-06 17:58N 46°13' W 123°48'0 0.3
2017-Oct-06 17:28N 46°13' W 123°48'0 0.3
2017-Oct-06 16:55N 46°13' W 123°48'0 0.0
2017-Oct-06 16:25N 46°12' W 123°48'0 0.1
2017-Oct-06 15:52N 46°12' W 123°48'0 0.0
2017-Oct-06 15:28N 46°12' W 123°48'0 0.0
2017-Oct-06 14:40N 46°12' W 123°48'0 0.0
2017-Oct-06 14:28N 46°12' W 123°48'0 0.0
2017-Oct-06 13:58N 46°12' W 123°48'0 0.0
2017-Oct-06 13:28N 46°12' W 123°48'0 0.0
2017-Oct-06 12:58N 46°12' W 123°48'0 0.0
2017-Oct-06 12:28N 46°12' W 123°48'0 0.0
2017-Oct-06 11:49N 46°12' W 123°48'0 0.0
2017-Oct-06 11:28N 46°12' W 123°48'0 0.0
2017-Oct-06 10:58N 46°12' W 123°48'0 0.4
2017-Oct-06 10:28N 46°12' W 123°48'0 0.2
2017-Oct-06 09:58N 46°13' W 123°48'0 0.0
2017-Oct-06 09:28N 46°12' W 123°48'0 0.0
2017-Oct-06 08:55N 46°12' W 123°48'0 0.1
2017-Oct-06 08:28N 46°13' W 123°48'0 0.0
2017-Oct-06 07:58N 46°13' W 123°48'0 0.1
2017-Oct-06 07:28N 46°13' W 123°48'0 0.0
2017-Oct-06 06:58N 46°13' W 123°48'0 0.0
2017-Oct-06 06:28N 46°13' W 123°48'0 0.0
2017-Oct-06 05:58N 46°13' W 123°48'0 0.1
2017-Oct-06 05:25N 46°13' W 123°48'0 0.4
2017-Oct-06 04:58N 46°13' W 123°48'0 0.1
2017-Oct-06 04:28N 46°12' W 123°48'0 0.1
2017-Oct-06 03:58N 46°12' W 123°48'0 0.0
2017-Oct-06 03:28N 46°12' W 123°48'0 0.0
2017-Oct-06 02:58N 46°12' W 123°48'0 0.0
2017-Oct-06 02:28N 46°12' W 123°48'0 0.0
2017-Oct-06 01:58N 46°12' W 123°48'0 0.0
2017-Oct-06 01:28N 46°12' W 123°48'0 0.0
2017-Oct-06 00:58N 46°12' W 123°48'0 0.0
2017-Oct-06 00:28N 46°12' W 123°48'0 0.0
2017-Oct-05 23:58N 46°12' W 123°48'0 0.0
2017-Oct-05 23:28N 46°12' W 123°48'0 0.0
2017-Oct-05 22:58N 46°12' W 123°48'0 0.1
2017-Oct-05 22:28N 46°13' W 123°48'0 0.2
2017-Oct-05 21:58N 46°12' W 123°48'0 0.3
2017-Oct-05 21:28N 46°12' W 123°48'0 0.1
2017-Oct-05 20:58N 46°13' W 123°48'0 0.0
2017-Oct-05 20:28N 46°13' W 123°48'0 0.0
2017-Oct-05 19:58N 46°13' W 123°48'0 0.0
2017-Oct-05 19:25N 46°13' W 123°48'0 0.1
2017-Oct-05 18:58N 46°13' W 123°48'0 0.0
2017-Oct-05 18:25N 46°13' W 123°48'0 0.0
2017-Oct-05 17:58N 46°13' W 123°48'0 0.1
2017-Oct-05 17:28N 46°13' W 123°48'0 0.5
2017-Oct-05 16:58N 46°12' W 123°48'0 0.0
2017-Oct-05 15:22N 46°12' W 123°48'0 0.0
2017-Oct-05 14:58N 46°12' W 123°48'0 0.0
2017-Oct-05 14:22N 46°12' W 123°48'0 0.0
2017-Oct-05 13:58N 46°12' W 123°48'0 0.0
2017-Oct-05 13:28N 46°12' W 123°48'0 0.0
2017-Oct-05 12:43N 46°12' W 123°48'0 0.0
2017-Oct-05 12:28N 46°12' W 123°48'0 0.0
2017-Oct-05 11:49N 46°12' W 123°48'0 0.0
2017-Oct-05 11:28N 46°12' W 123°48'0 0.0
2017-Oct-05 10:49N 46°12' W 123°48'0 0.0
2017-Oct-05 10:28N 46°12' W 123°48'0 0.0
2017-Oct-05 09:58N 46°12' W 123°48'0 0.4
2017-Oct-05 09:28N 46°12' W 123°48'0 0.3
2017-Oct-05 08:58N 46°13' W 123°48'0 0.0
2017-Oct-05 08:28N 46°13' W 123°48'0 0.1
2017-Oct-05 07:46N 46°13' W 123°48'0 0.1
2017-Oct-05 07:28N 46°13' W 123°48'0 0.0
2017-Oct-05 06:55N 46°13' W 123°48'0 0.0
2017-Oct-05 06:25N 46°13' W 123°48'0 0.0
2017-Oct-05 05:40N 46°13' W 123°48'0 0.1
2017-Oct-05 05:28N 46°13' W 123°48'0 0.4
2017-Oct-05 04:58N 46°12' W 123°48'0 0.4
2017-Oct-05 04:28N 46°12' W 123°48'0 0.0
2017-Oct-05 03:58N 46°12' W 123°48'0 0.0
2017-Oct-05 03:28N 46°12' W 123°48'0 0.0
2017-Oct-05 02:58N 46°12' W 123°48'0 0.0
2017-Oct-05 02:28N 46°12' W 123°48'0 0.0
2017-Oct-05 01:58N 46°12' W 123°48'0 0.0
2017-Oct-05 01:28N 46°12' W 123°48'0 0.0
2017-Oct-05 00:58N 46°12' W 123°48'0 0.0
2017-Oct-05 00:28N 46°12' W 123°48'0 0.0
2017-Oct-04 23:55N 46°12' W 123°48'0 0.0
2017-Oct-04 23:28N 46°12' W 123°48'0 0.0
2017-Oct-04 22:58N 46°12' W 123°48'0 0.0
2017-Oct-04 22:28N 46°12' W 123°48'0 0.1
2017-Oct-04 21:58N 46°12' W 123°48'0 0.1
2017-Oct-04 21:25N 46°12' W 123°48'0 0.4
2017-Oct-04 20:55N 46°13' W 123°48'0 0.1
2017-Oct-04 20:28N 46°13' W 123°48'0 0.0
2017-Oct-04 19:58N 46°13' W 123°48'0 0.0
2017-Oct-04 19:28N 46°13' W 123°48'0 0.0
2017-Oct-04 18:58N 46°13' W 123°48'0 0.1
2017-Oct-04 18:28N 46°13' W 123°48'0 0.0
2017-Oct-04 17:58N 46°13' W 123°48'0 0.0
2017-Oct-04 17:28N 46°13' W 123°48'0 0.2
2017-Oct-04 16:58N 46°13' W 123°48'0 0.4
2017-Oct-04 16:25N 46°13' W 123°48'0 0.0
2017-Oct-04 15:58N 46°13' W 123°48'0 0.1
2017-Oct-04 15:28N 46°12' W 123°48'0 0.0
2017-Oct-04 14:58N 46°12' W 123°48'0 0.0
2017-Oct-04 14:25N 46°12' W 123°48'0 0.0
2017-Oct-04 13:58N 46°12' W 123°48'0 0.0
2017-Oct-04 13:28N 46°12' W 123°48'0 0.1
2017-Oct-04 12:58N 46°12' W 123°48'0 0.1
2017-Oct-04 12:28N 46°12' W 123°48'0 0.0
2017-Oct-04 11:52N 46°12' W 123°48'0 0.0
2017-Oct-04 11:28N 46°12' W 123°48'0 0.0
2017-Oct-04 10:58N 46°12' W 123°48'0 0.0
2017-Oct-04 10:25N 46°12' W 123°48'0 0.0
2017-Oct-04 09:58N 46°12' W 123°48'0 0.0
2017-Oct-04 09:28N 46°13' W 123°48'0 0.0
2017-Oct-04 08:58N 46°12' W 123°48'0 0.4
2017-Oct-04 08:28N 46°13' W 123°48'0 0.3
2017-Oct-04 07:58N 46°13' W 123°48'0 0.0
2017-Oct-04 07:13N 46°13' W 123°48'0 0.0
2017-Oct-04 06:58N 46°13' W 123°48'0 0.0
2017-Oct-04 06:28N 46°13' W 123°48'0 0.0
2017-Oct-04 05:58N 46°13' W 123°48'0 0.0
2017-Oct-04 05:28N 46°13' W 123°48'0 0.0
2017-Oct-04 04:55N 46°13' W 123°48'0 0.1
2017-Oct-04 04:25N 46°13' W 123°48'0 0.2
2017-Oct-04 03:28N 46°12' W 123°48'0 0.1
2017-Oct-04 02:58N 46°12' W 123°48'0 0.0
2017-Oct-04 02:16N 46°12' W 123°48'0 0.0
2017-Oct-04 01:58N 46°12' W 123°48'0 0.0
2017-Oct-04 01:28N 46°12' W 123°48'0 0.0
2017-Oct-04 00:58N 46°12' W 123°48'0 0.0
2017-Oct-04 00:28N 46°12' W 123°48'0 0.0
2017-Oct-03 23:58N 46°12' W 123°48'0 0.0
2017-Oct-03 23:25N 46°12' W 123°48'0 0.0
2017-Oct-03 22:58N 46°12' W 123°48'0 0.0
2017-Oct-03 22:16N 46°13' W 123°48'0 0.1
2017-Oct-03 21:58N 46°13' W 123°48'0 0.0
2017-Oct-03 21:28N 46°13' W 123°48'0 0.1
2017-Oct-03 20:58N 46°12' W 123°48'0 0.3
2017-Oct-03 20:28N 46°12' W 123°48'0 0.2
2017-Oct-03 19:58N 46°13' W 123°48'0 0.1
2017-Oct-03 19:28N 46°13' W 123°48'0 0.0
2017-Oct-03 18:58N 46°13' W 123°48'0 0.0
2017-Oct-03 18:28N 46°13' W 123°48'0 0.0
2017-Oct-03 17:58N 46°13' W 123°48'0 0.0
2017-Oct-03 17:28N 46°13' W 123°48'0 0.0
2017-Oct-03 16:58N 46°13' W 123°48'0 0.4
2017-Oct-03 16:28N 46°12' W 123°48'0 0.3
2017-Oct-03 15:58N 46°12' W 123°48'0 0.1
2017-Oct-03 15:19N 46°12' W 123°48'0 0.0
2017-Oct-03 14:58N 46°12' W 123°48'0 0.0
2017-Oct-03 13:58N 46°12' W 123°48'0 0.0
2017-Oct-03 13:28N 46°12' W 123°48'0 0.1
2017-Oct-03 12:58N 46°12' W 123°48'0 0.0
2017-Oct-03 12:28N 46°12' W 123°48'0 0.1
2017-Oct-03 11:58N 46°12' W 123°48'0 0.0
2017-Oct-03 11:16N 46°12' W 123°48'0 0.0
2017-Oct-03 10:58N 46°12' W 123°48'0 0.0
2017-Oct-03 10:22N 46°12' W 123°48'0 0.0
2017-Oct-03 09:58N 46°12' W 123°48'0 0.0
2017-Oct-03 09:28N 46°13' W 123°48'0 0.1
2017-Oct-03 08:58N 46°13' W 123°48'0 0.0
2017-Oct-03 08:28N 46°12' W 123°48'0 0.4
2017-Oct-03 07:58N 46°13' W 123°48'0 0.2
2017-Oct-03 07:28N 46°13' W 123°48'0 0.0
2017-Oct-03 06:58N 46°13' W 123°48'0 0.0
2017-Oct-03 06:28N 46°13' W 123°48'0 0.1
2017-Oct-03 05:58N 46°13' W 123°48'0 0.0
2017-Oct-03 05:28N 46°13' W 123°48'0 0.0
2017-Oct-03 04:55N 46°13' W 123°48'0 0.0
2017-Oct-03 04:28N 46°13' W 123°48'0 0.1
2017-Oct-03 03:58N 46°13' W 123°48'0 0.4
2017-Oct-03 03:25N 46°12' W 123°48'0 0.1
2017-Oct-03 02:58N 46°12' W 123°48'0 0.0
2017-Oct-03 02:28N 46°12' W 123°48'0 0.0
2017-Oct-03 01:58N 46°12' W 123°48'0 0.1
2017-Oct-03 01:22N 46°12' W 123°48'0 0.0
2017-Oct-03 00:43N 46°12' W 123°48'0 0.0
2017-Oct-03 00:28N 46°12' W 123°48'0 0.0
2017-Oct-02 23:58N 46°12' W 123°48'0 0.0
2017-Oct-02 23:28N 46°12' W 123°48'0 0.0
2017-Oct-02 22:58N 46°12' W 123°48'0 0.0
2017-Oct-02 22:28N 46°12' W 123°48'0 0.1
2017-Oct-02 21:58N 46°12' W 123°48'0 0.0
2017-Oct-02 21:28N 46°12' W 123°48'0 0.0
2017-Oct-02 20:55N 46°13' W 123°48'0 0.3
2017-Oct-02 20:28N 46°13' W 123°48'0 0.3
2017-Oct-02 19:58N 46°13' W 123°48'0 0.1
2017-Oct-02 19:25N 46°13' W 123°48'0 0.0
2017-Oct-02 18:58N 46°13' W 123°48'0 0.1
2017-Oct-02 18:28N 46°13' W 123°48'0 0.0
2017-Oct-02 17:58N 46°13' W 123°48'0 0.0
2017-Oct-02 17:28N 46°13' W 123°48'0 0.0
2017-Oct-02 16:55N 46°13' W 123°48'0 0.0
2017-Oct-02 16:28N 46°13' W 123°48'0 0.1
2017-Oct-02 15:58N 46°13' W 123°48'0 0.3
2017-Oct-02 15:28N 46°12' W 123°48'0 0.3
2017-Oct-02 14:58N 46°12' W 123°48'0 0.0
2017-Oct-02 14:28N 46°12' W 123°48'0 0.1
2017-Oct-02 13:37N 46°12' W 123°48'0 0.0
2017-Oct-02 13:28N 46°12' W 123°48'0 0.0
2017-Oct-02 12:58N 46°12' W 123°48'0 0.0
2017-Oct-02 12:28N 46°12' W 123°48'0 0.0
2017-Oct-02 11:58N 46°12' W 123°48'0 0.0
2017-Oct-02 11:28N 46°12' W 123°48'0 0.0
2017-Oct-02 10:58N 46°12' W 123°48'0 0.0
2017-Oct-02 10:28N 46°12' W 123°48'0 0.0
2017-Oct-02 09:58N 46°12' W 123°48'0 0.0
2017-Oct-02 09:28N 46°12' W 123°48'0 0.0
2017-Oct-02 08:58N 46°12' W 123°48'0 0.0
2017-Oct-02 08:28N 46°12' W 123°48'0 0.0
2017-Oct-02 07:58N 46°13' W 123°48'0 0.4
2017-Oct-02 07:25N 46°13' W 123°48'0 0.2
2017-Oct-02 06:58N 46°13' W 123°48'0 0.1
2017-Oct-02 06:28N 46°13' W 123°48'0 0.0
2017-Oct-02 05:58N 46°13' W 123°48'0 0.0
2017-Oct-02 04:55N 46°13' W 123°48'0 0.0
2017-Oct-02 04:28N 46°13' W 123°48'0 0.0
2017-Oct-02 03:58N 46°13' W 123°48'0 0.0
2017-Oct-02 03:22N 46°13' W 123°48'0 0.0
2017-Oct-02 02:58N 46°13' W 123°48'0 0.1
2017-Oct-02 02:28N 46°13' W 123°48'0 0.2
2017-Oct-02 01:52N 46°12' W 123°48'0 0.2
2017-Oct-02 01:25N 46°12' W 123°48'0 0.0
2017-Oct-02 00:34N 46°12' W 123°48'0 0.0
2017-Oct-02 00:25N 46°12' W 123°48'0 0.0
2017-Oct-01 23:58N 46°12' W 123°48'0 0.1
2017-Oct-01 23:25N 46°13' W 123°48'0 0.1
2017-Oct-01 22:58N 46°12' W 123°48'0 0.1
2017-Oct-01 22:19N 46°12' W 123°48'0 0.1
2017-Oct-01 21:25N 46°12' W 123°48'0 0.4
2017-Oct-01 20:52N 46°12' W 123°48'0 0.3
2017-Oct-01 20:28N 46°13' W 123°48'0 0.0
2017-Oct-01 19:58N 46°13' W 123°48'0 0.0
2017-Oct-01 19:04N 46°13' W 123°48'0 0.1
2017-Oct-01 18:58N 46°13' W 123°48'0 0.1
2017-Oct-01 18:28N 46°13' W 123°48'0 0.0
2017-Oct-01 17:58N 46°13' W 123°48'0 0.1
2017-Oct-01 17:28N 46°13' W 123°48'0 0.0
2017-Oct-01 16:58N 46°13' W 123°48'0 0.0
2017-Oct-01 16:25N 46°13' W 123°48'0 0.1
2017-Oct-01 15:55N 46°13' W 123°48'0 0.1
2017-Oct-01 15:25N 46°13' W 123°48'0 0.1
2017-Oct-01 14:58N 46°13' W 123°48'0 0.3
2017-Oct-01 14:28N 46°12' W 123°48'0 0.2
2017-Oct-01 13:55N 46°12' W 123°48'0 0.0
2017-Oct-01 13:28N 46°12' W 123°48'0 0.1
2017-Oct-01 12:58N 46°12' W 123°48'0 0.0
2017-Oct-01 12:28N 46°12' W 123°48'0 0.0
2017-Oct-01 11:58N 46°12' W 123°48'0 0.0
2017-Oct-01 11:28N 46°12' W 123°48'0 0.0
2017-Oct-01 10:58N 46°12' W 123°48'0 0.0
2017-Oct-01 10:28N 46°12' W 123°48'0 0.0
2017-Oct-01 09:58N 46°12' W 123°48'0 0.0
2017-Oct-01 09:28N 46°12' W 123°48'0 0.0
2017-Oct-01 08:58N 46°12' W 123°48'0 0.1
2017-Oct-01 08:28N 46°12' W 123°48'0 0.0
2017-Oct-01 07:58N 46°12' W 123°48'0 0.1
2017-Oct-01 07:28N 46°13' W 123°48'0 0.1
2017-Oct-01 06:58N 46°12' W 123°48'0 0.3
2017-Oct-01 06:22N 46°12' W 123°48'0 0.4
2017-Oct-01 05:58N 46°12' W 123°48'0 0.1
2017-Oct-01 05:28N 46°13' W 123°48'0 0.1
2017-Oct-01 04:58N 46°13' W 123°48'0 0.0
2017-Oct-01 04:28N 46°13' W 123°48'0 0.0
2017-Oct-01 03:58N 46°13' W 123°48'0 0.1
2017-Oct-01 03:07N 46°13' W 123°48'0 0.3
2017-Oct-01 02:55N 46°13' W 123°48'  
Track history (hours):
 
Tides and Currents Weather Stations Pressure Air Temp Water Temp Dewpoint Dewpoint Depression Visibility Wind Speed Wind Dir Waves Ship Positions

Sun Excelsior

Last reported at 2017-Oct-10 07:14 UTC. Time now 2017-Oct-20 16:14 UTC.
Position N 46°13' W 125°58'.
Warning: this ship's position is 10 days out of date.

Length 224 m; draft 13.5 m.

Type: Cargo ship. MMSI: 370737000.

Date/timePositionNaut miles runAvg speedWind from/ knotsBaromVisibWave heightAir tempDewpointWater temp
2017-Oct-10 07:14N 46°13' W 125°58'312.5
2017-Oct-10 07:00N 46°13' W 125°54'712.5
2017-Oct-10 06:28N 46°13' W 125°45'712.6
2017-Oct-10 05:54N 46°13' W 125°34'512.4
2017-Oct-10 05:31N 46°12' W 125°27'612.2
2017-Oct-10 05:00N 46°12' W 125°19'612.2
2017-Oct-10 04:30N 46°12' W 125°10'812.2
2017-Oct-10 03:50N 46°12' W 124°58'412.6
2017-Oct-10 03:30N 46°12' W 124°52'712.4
2017-Oct-10 02:56N 46°12' W 124°42'512.0
2017-Oct-10 02:31N 46°12' W 124°34'612.1
2017-Oct-10 02:01N 46°12' W 124°25'1012.0
2017-Oct-10 01:11N 46°13' W 124°11'212.6
2017-Oct-10 01:01N 46°14' W 124°08'611.7
2017-Oct-10 00:30N 46°15' W 123°60'611.1
2017-Oct-10 00:01N 46°11' W 123°53'4 8.9
2017-Oct-09 23:30N 46°13' W 123°47'5 9.8
2017-Oct-09 23:01N 46°15' W 123°41'5 9.8
2017-Oct-09 22:31N 46°15' W 123°34'4 8.9
2017-Oct-09 22:00N 46°16' W 123°27'5 9.2
2017-Oct-09 21:31N 46°11' W 123°26'4 7.7
2017-Oct-09 21:01N 46°09' W 123°22'510.0
2017-Oct-09 20:30N 46°10' W 123°15'510.7
2017-Oct-09 20:00N 46°11' W 123°07'510.6
2017-Oct-09 19:30N 46°08' W 123°01'510.2
2017-Oct-09 19:00N 46°05' W 122°55'510.0
2017-Oct-09 18:30N 46°01' W 122°51'2 3.4
2017-Oct-09 17:55N 45°59' W 122°50'0 0.0
2017-Oct-09 17:28N 45°59' W 122°50'0 0.0
2017-Oct-09 16:58N 45°59' W 122°50'0 0.0
2017-Oct-09 16:22N 45°59' W 122°50'0 0.0
2017-Oct-09 15:58N 45°59' W 122°50'0 0.0
2017-Oct-09 15:28N 45°59' W 122°50'0 0.0
2017-Oct-09 14:55N 45°59' W 122°50'0 0.0
2017-Oct-09 14:28N 45°59' W 122°50'0 0.0
2017-Oct-09 13:58N 45°59' W 122°50'0 0.0
2017-Oct-09 13:22N 45°59' W 122°50'0 0.0
2017-Oct-09 12:52N 45°59' W 122°50'0 0.0
2017-Oct-09 12:28N 45°59' W 122°50'0 0.0
2017-Oct-09 11:58N 45°59' W 122°50'0 0.0
2017-Oct-09 11:28N 45°59' W 122°50'0 0.0
2017-Oct-09 10:58N 45°59' W 122°50'0 0.0
2017-Oct-09 10:10N 45°59' W 122°50'0 0.0
2017-Oct-09 09:58N 45°59' W 122°50'0 0.0
2017-Oct-09 09:10N 45°59' W 122°50'0 0.0
2017-Oct-09 08:55N 45°59' W 122°50'0 0.0
2017-Oct-09 08:28N 45°59' W 122°50'0 0.0
2017-Oct-09 07:58N 45°59' W 122°50'0 0.0
2017-Oct-09 07:28N 45°59' W 122°50'0 0.0
2017-Oct-09 06:58N 45°59' W 122°50'0 0.0
2017-Oct-09 06:28N 45°59' W 122°50'0 0.0
2017-Oct-09 05:58N 45°59' W 122°50'0 0.0
2017-Oct-09 05:25N 45°59' W 122°50'0 0.0
2017-Oct-09 04:58N 45°59' W 122°50'0 0.0
2017-Oct-09 04:25N 45°59' W 122°50'0 0.0
2017-Oct-09 03:56N 45°59' W 122°50'0 0.0
2017-Oct-09 03:28N 45°59' W 122°50'0 0.0
2017-Oct-09 02:58N 45°59' W 122°50'0 0.0
2017-Oct-09 02:28N 45°59' W 122°50'0 0.0
2017-Oct-09 01:58N 45°59' W 122°50'0 0.0
2017-Oct-09 01:28N 45°59' W 122°50'0 0.0
2017-Oct-09 00:43N 45°59' W 122°50'0 0.0
2017-Oct-09 00:25N 45°59' W 122°50'0 0.0
2017-Oct-08 23:58N 45°59' W 122°50'0 0.0
2017-Oct-08 23:28N 45°59' W 122°50'0 0.0
2017-Oct-08 22:49N 45°59' W 122°50'0 0.0
2017-Oct-08 22:13N 45°59' W 122°50'0 0.0
2017-Oct-08 21:55N 45°59' W 122°50'0 0.0
2017-Oct-08 21:25N 45°59' W 122°50'0 0.0
2017-Oct-08 20:52N 45°59' W 122°50'0 0.0
2017-Oct-08 20:28N 45°59' W 122°50'0 0.0
2017-Oct-08 19:58N 45°59' W 122°50'0 0.0
2017-Oct-08 19:25N 45°59' W 122°50'0 0.0
2017-Oct-08 18:58N 45°59' W 122°50'0 0.0
2017-Oct-08 18:25N 45°59' W 122°50'0 0.0
2017-Oct-08 17:46N 45°59' W 122°50'0 0.0
2017-Oct-08 17:28N 45°59' W 122°50'0 0.0
2017-Oct-08 16:55N 45°59' W 122°50'0 0.0
2017-Oct-08 16:28N 45°59' W 122°50'0 0.0
2017-Oct-08 15:58N 45°59' W 122°50'0 0.0
2017-Oct-08 15:28N 45°59' W 122°50'0 0.0
2017-Oct-08 14:46N 45°59' W 122°50'0 0.0
2017-Oct-08 14:19N 45°59' W 122°50'0 0.0
2017-Oct-08 13:58N 45°59' W 122°50'0 0.0
2017-Oct-08 13:22N 45°59' W 122°50'0 0.0
2017-Oct-08 12:52N 45°59' W 122°50'0 0.0
2017-Oct-08 12:28N 45°59' W 122°50'0 0.0
2017-Oct-08 11:58N 45°59' W 122°50'0 0.0
2017-Oct-08 11:22N 45°59' W 122°50'0 0.0
2017-Oct-08 10:58N 45°59' W 122°50'0 0.0
2017-Oct-08 10:25N 45°59' W 122°50'0 0.0
2017-Oct-08 09:58N 45°59' W 122°50'0 0.0
2017-Oct-08 09:28N 45°59' W 122°50'0 0.0
2017-Oct-08 08:58N 45°59' W 122°50'0 0.0
2017-Oct-08 08:19N 45°59' W 122°50'0 0.0
2017-Oct-08 07:55N 45°59' W 122°50'0 0.0
2017-Oct-08 07:28N 45°59' W 122°50'0 0.0
2017-Oct-08 06:58N 45°59' W 122°50'0 0.0
2017-Oct-08 06:28N 45°59' W 122°50'0 0.0
2017-Oct-08 05:58N 45°59' W 122°50'0 0.0
2017-Oct-08 05:28N 45°59' W 122°50'0 0.0
2017-Oct-08 04:55N 45°59' W 122°50'0 0.0
2017-Oct-08 04:28N 45°59' W 122°50'0 0.0
2017-Oct-08 03:58N 45°59' W 122°50'0 0.0
2017-Oct-08 03:13N 45°59' W 122°50'0 0.0
2017-Oct-08 02:58N 45°59' W 122°50'0 0.0
2017-Oct-08 02:25N 45°59' W 122°50'0 0.0
2017-Oct-08 01:58N 45°59' W 122°50'0 0.0
2017-Oct-08 01:28N 45°59' W 122°50'0 0.0
2017-Oct-08 00:55N 45°59' W 122°50'0 0.0
2017-Oct-08 00:25N 45°59' W 122°50'0 0.0
2017-Oct-07 23:55N 45°59' W 122°50'0 0.0
2017-Oct-07 23:28N 45°59' W 122°50'0 0.0
2017-Oct-07 22:58N 45°59' W 122°50'0 0.0
2017-Oct-07 22:28N 45°59' W 122°50'0 0.0
2017-Oct-07 21:55N 45°59' W 122°50'0 0.0
2017-Oct-07 21:28N 45°59' W 122°50'0 0.0
2017-Oct-07 20:58N 45°59' W 122°50'0 0.0
2017-Oct-07 20:28N 45°59' W 122°50'0 0.0
2017-Oct-07 19:58N 45°59' W 122°50'0 0.0
2017-Oct-07 19:25N 45°59' W 122°50'0 0.0
2017-Oct-07 18:58N 45°59' W 122°50'0 0.0
2017-Oct-07 18:28N 45°59' W 122°50'0 0.0
2017-Oct-07 17:58N 45°59' W 122°50'0 0.0
2017-Oct-07 15:55N 45°59' W 122°50'0 0.0
2017-Oct-07 15:28N 45°59' W 122°50'0 0.0
2017-Oct-07 14:58N 45°59' W 122°50'0 0.0
2017-Oct-07 13:43N 45°59' W 122°50'0 0.0
2017-Oct-07 13:28N 45°59' W 122°50'0 0.0
2017-Oct-07 12:55N 45°59' W 122°50'0 0.0
2017-Oct-07 12:30N 45°59' W 122°50'0 0.4
2017-Oct-07 12:00N 45°59' W 122°50'510.2
2017-Oct-07 11:30N 46°04' W 122°53'510.5
2017-Oct-07 11:01N 46°07' W 122°59'713.9
2017-Oct-07 10:30N 46°11' W 123°07'814.7
2017-Oct-07 10:00N 46°09' W 123°17'613.1
2017-Oct-07 09:31N 46°11' W 123°26'611.6
2017-Oct-07 09:01N 46°16' W 123°30'1113.8
2017-Oct-07 08:12N 46°13' W 123°45'210.0
2017-Oct-07 08:00N 46°12' W 123°48'0 0.2
2017-Oct-07 07:25N 46°13' W 123°48'0 0.1
2017-Oct-07 06:43N 46°13' W 123°48'0 0.0
2017-Oct-07 06:28N 46°13' W 123°48'0 0.0
2017-Oct-07 05:58N 46°13' W 123°48'0 0.1
2017-Oct-07 05:28N 46°13' W 123°48'0 0.4
2017-Oct-07 04:58N 46°13' W 123°48'0 0.2
2017-Oct-07 04:22N 46°12' W 123°48'0 0.0
2017-Oct-07 03:55N 46°12' W 123°48'0 0.0
2017-Oct-07 03:28N 46°12' W 123°48'0 0.0
2017-Oct-07 02:58N 46°12' W 123°48'0 0.0
2017-Oct-07 02:19N 46°12' W 123°48'0 0.0
2017-Oct-07 01:58N 46°12' W 123°48'0 0.1
2017-Oct-07 01:28N 46°12' W 123°48'0 0.0
2017-Oct-07 00:58N 46°12' W 123°48'0 0.0
2017-Oct-07 00:28N 46°12' W 123°48'0 0.0
2017-Oct-06 23:58N 46°12' W 123°48'0 0.0
2017-Oct-06 23:28N 46°12' W 123°48'0 0.2
2017-Oct-06 22:58N 46°12' W 123°48'0 0.4
2017-Oct-06 22:28N 46°13' W 123°48'0 0.0
2017-Oct-06 21:58N 46°13' W 123°48'0 0.0
2017-Oct-06 21:28N 46°13' W 123°48'0 0.0
2017-Oct-06 20:58N 46°13' W 123°48'0 0.0
2017-Oct-06 20:28N 46°13' W 123°48'0 0.0
2017-Oct-06 19:55N 46°13' W 123°48'0 0.0
2017-Oct-06 19:28N 46°13' W 123°48'0 0.0
2017-Oct-06 18:58N 46°13' W 123°48'0 0.0
2017-Oct-06 18:28N 46°13' W 123°48'0 0.0
2017-Oct-06 17:58N 46°13' W 123°48'0 0.3
2017-Oct-06 17:28N 46°13' W 123°48'0 0.3
2017-Oct-06 16:55N 46°13' W 123°48'0 0.0
2017-Oct-06 16:25N 46°12' W 123°48'0 0.1
2017-Oct-06 15:52N 46°12' W 123°48'0 0.0
2017-Oct-06 15:28N 46°12' W 123°48'0 0.0
2017-Oct-06 14:40N 46°12' W 123°48'0 0.0
2017-Oct-06 14:28N 46°12' W 123°48'0 0.0
2017-Oct-06 13:58N 46°12' W 123°48'0 0.0
2017-Oct-06 13:28N 46°12' W 123°48'0 0.0
2017-Oct-06 12:58N 46°12' W 123°48'0 0.0
2017-Oct-06 12:28N 46°12' W 123°48'0 0.0
2017-Oct-06 11:49N 46°12' W 123°48'0 0.0
2017-Oct-06 11:28N 46°12' W 123°48'0 0.0
2017-Oct-06 10:58N 46°12' W 123°48'0 0.4
2017-Oct-06 10:28N 46°12' W 123°48'0 0.2
2017-Oct-06 09:58N 46°13' W 123°48'0 0.0
2017-Oct-06 09:28N 46°12' W 123°48'0 0.0
2017-Oct-06 08:55N 46°12' W 123°48'0 0.1
2017-Oct-06 08:28N 46°13' W 123°48'0 0.0
2017-Oct-06 07:58N 46°13' W 123°48'0 0.1
2017-Oct-06 07:28N 46°13' W 123°48'0 0.0
2017-Oct-06 06:58N 46°13' W 123°48'0 0.0
2017-Oct-06 06:28N 46°13' W 123°48'0 0.0
2017-Oct-06 05:58N 46°13' W 123°48'0 0.1
2017-Oct-06 05:25N 46°13' W 123°48'0 0.4
2017-Oct-06 04:58N 46°13' W 123°48'0 0.1
2017-Oct-06 04:28N 46°12' W 123°48'0 0.1
2017-Oct-06 03:58N 46°12' W 123°48'0 0.0
2017-Oct-06 03:28N 46°12' W 123°48'0 0.0
2017-Oct-06 02:58N 46°12' W 123°48'0 0.0
2017-Oct-06 02:28N 46°12' W 123°48'0 0.0
2017-Oct-06 01:58N 46°12' W 123°48'0 0.0
2017-Oct-06 01:28N 46°12' W 123°48'0 0.0
2017-Oct-06 00:58N 46°12' W 123°48'0 0.0
2017-Oct-06 00:28N 46°12' W 123°48'0 0.0
2017-Oct-05 23:58N 46°12' W 123°48'0 0.0
2017-Oct-05 23:28N 46°12' W 123°48'0 0.0
2017-Oct-05 22:58N 46°12' W 123°48'0 0.1
2017-Oct-05 22:28N 46°13' W 123°48'0 0.2
2017-Oct-05 21:58N 46°12' W 123°48'0 0.3
2017-Oct-05 21:28N 46°12' W 123°48'0 0.1
2017-Oct-05 20:58N 46°13' W 123°48'0 0.0
2017-Oct-05 20:28N 46°13' W 123°48'0 0.0
2017-Oct-05 19:58N 46°13' W 123°48'0 0.0
2017-Oct-05 19:25N 46°13' W 123°48'0 0.1
2017-Oct-05 18:58N 46°13' W 123°48'0 0.0
2017-Oct-05 18:25N 46°13' W 123°48'0 0.0
2017-Oct-05 17:58N 46°13' W 123°48'0 0.1
2017-Oct-05 17:28N 46°13' W 123°48'0 0.5
2017-Oct-05 16:58N 46°12' W 123°48'0 0.0
2017-Oct-05 15:22N 46°12' W 123°48'0 0.0
2017-Oct-05 14:58N 46°12' W 123°48'0 0.0
2017-Oct-05 14:22N 46°12' W 123°48'0 0.0
2017-Oct-05 13:58N 46°12' W 123°48'0 0.0
2017-Oct-05 13:28N 46°12' W 123°48'0 0.0
2017-Oct-05 12:43N 46°12' W 123°48'0 0.0
2017-Oct-05 12:28N 46°12' W 123°48'0 0.0
2017-Oct-05 11:49N 46°12' W 123°48'0 0.0
2017-Oct-05 11:28N 46°12' W 123°48'0 0.0
2017-Oct-05 10:49N 46°12' W 123°48'0 0.0
2017-Oct-05 10:28N 46°12' W 123°48'0 0.0
2017-Oct-05 09:58N 46°12' W 123°48'0 0.4
2017-Oct-05 09:28N 46°12' W 123°48'0 0.3
2017-Oct-05 08:58N 46°13' W 123°48'0 0.0
2017-Oct-05 08:28N 46°13' W 123°48'0 0.1
2017-Oct-05 07:46N 46°13' W 123°48'0 0.1
2017-Oct-05 07:28N 46°13' W 123°48'0 0.0
2017-Oct-05 06:55N 46°13' W 123°48'0 0.0
2017-Oct-05 06:25N 46°13' W 123°48'0 0.0
2017-Oct-05 05:40N 46°13' W 123°48'0 0.1
2017-Oct-05 05:28N 46°13' W 123°48'0 0.4
2017-Oct-05 04:58N 46°12' W 123°48'0 0.4
2017-Oct-05 04:28N 46°12' W 123°48'0 0.0
2017-Oct-05 03:58N 46°12' W 123°48'0 0.0
2017-Oct-05 03:28N 46°12' W 123°48'0 0.0
2017-Oct-05 02:58N 46°12' W 123°48'0 0.0
2017-Oct-05 02:28N 46°12' W 123°48'0 0.0
2017-Oct-05 01:58N 46°12' W 123°48'0 0.0
2017-Oct-05 01:28N 46°12' W 123°48'0 0.0
2017-Oct-05 00:58N 46°12' W 123°48'0 0.0
2017-Oct-05 00:28N 46°12' W 123°48'0 0.0
2017-Oct-04 23:55N 46°12' W 123°48'0 0.0
2017-Oct-04 23:28N 46°12' W 123°48'0 0.0
2017-Oct-04 22:58N 46°12' W 123°48'0 0.0
2017-Oct-04 22:28N 46°12' W 123°48'0 0.1
2017-Oct-04 21:58N 46°12' W 123°48'0 0.1
2017-Oct-04 21:25N 46°12' W 123°48'0 0.4
2017-Oct-04 20:55N 46°13' W 123°48'0 0.1
2017-Oct-04 20:28N 46°13' W 123°48'0 0.0
2017-Oct-04 19:58N 46°13' W 123°48'0 0.0
2017-Oct-04 19:28N 46°13' W 123°48'0 0.0
2017-Oct-04 18:58N 46°13' W 123°48'0 0.1
2017-Oct-04 18:28N 46°13' W 123°48'0 0.0
2017-Oct-04 17:58N 46°13' W 123°48'0 0.0
2017-Oct-04 17:28N 46°13' W 123°48'0 0.2
2017-Oct-04 16:58N 46°13' W 123°48'0 0.4
2017-Oct-04 16:25N 46°13' W 123°48'0 0.0
2017-Oct-04 15:58N 46°13' W 123°48'0 0.1
2017-Oct-04 15:28N 46°12' W 123°48'0 0.0
2017-Oct-04 14:58N 46°12' W 123°48'0 0.0
2017-Oct-04 14:25N 46°12' W 123°48'0 0.0
2017-Oct-04 13:58N 46°12' W 123°48'0 0.0
2017-Oct-04 13:28N 46°12' W 123°48'0 0.1
2017-Oct-04 12:58N 46°12' W 123°48'0 0.1
2017-Oct-04 12:28N 46°12' W 123°48'0 0.0
2017-Oct-04 11:52N 46°12' W 123°48'0 0.0
2017-Oct-04 11:28N 46°12' W 123°48'0 0.0
2017-Oct-04 10:58N 46°12' W 123°48'0 0.0
2017-Oct-04 10:25N 46°12' W 123°48'0 0.0
2017-Oct-04 09:58N 46°12' W 123°48'0 0.0
2017-Oct-04 09:28N 46°13' W 123°48'0 0.0
2017-Oct-04 08:58N 46°12' W 123°48'0 0.4
2017-Oct-04 08:28N 46°13' W 123°48'0 0.3
2017-Oct-04 07:58N 46°13' W 123°48'0 0.0
2017-Oct-04 07:13N 46°13' W 123°48'0 0.0
2017-Oct-04 06:58N 46°13' W 123°48'0 0.0
2017-Oct-04 06:28N 46°13' W 123°48'0 0.0
2017-Oct-04 05:58N 46°13' W 123°48'0 0.0
2017-Oct-04 05:28N 46°13' W 123°48'0 0.0
2017-Oct-04 04:55N 46°13' W 123°48'0 0.1
2017-Oct-04 04:25N 46°13' W 123°48'0 0.2
2017-Oct-04 03:28N 46°12' W 123°48'0 0.1
2017-Oct-04 02:58N 46°12' W 123°48'0 0.0
2017-Oct-04 02:16N 46°12' W 123°48'0 0.0
2017-Oct-04 01:58N 46°12' W 123°48'0 0.0
2017-Oct-04 01:28N 46°12' W 123°48'0 0.0
2017-Oct-04 00:58N 46°12' W 123°48'0 0.0
2017-Oct-04 00:28N 46°12' W 123°48'0 0.0
2017-Oct-03 23:58N 46°12' W 123°48'0 0.0
2017-Oct-03 23:25N 46°12' W 123°48'0 0.0
2017-Oct-03 22:58N 46°12' W 123°48'0 0.0
2017-Oct-03 22:16N 46°13' W 123°48'0 0.1
2017-Oct-03 21:58N 46°13' W 123°48'0 0.0
2017-Oct-03 21:28N 46°13' W 123°48'0 0.1
2017-Oct-03 20:58N 46°12' W 123°48'0 0.3
2017-Oct-03 20:28N 46°12' W 123°48'0 0.2
2017-Oct-03 19:58N 46°13' W 123°48'0 0.1
2017-Oct-03 19:28N 46°13' W 123°48'0 0.0
2017-Oct-03 18:58N 46°13' W 123°48'0 0.0
2017-Oct-03 18:28N 46°13' W 123°48'0 0.0
2017-Oct-03 17:58N 46°13' W 123°48'0 0.0
2017-Oct-03 17:28N 46°13' W 123°48'0 0.0
2017-Oct-03 16:58N 46°13' W 123°48'0 0.4
2017-Oct-03 16:28N 46°12' W 123°48'0 0.3
2017-Oct-03 15:58N 46°12' W 123°48'0 0.1
2017-Oct-03 15:19N 46°12' W 123°48'0 0.0
2017-Oct-03 14:58N 46°12' W 123°48'0 0.0
2017-Oct-03 13:58N 46°12' W 123°48'0 0.0
2017-Oct-03 13:28N 46°12' W 123°48'0 0.1
2017-Oct-03 12:58N 46°12' W 123°48'0 0.0
2017-Oct-03 12:28N 46°12' W 123°48'0 0.1
2017-Oct-03 11:58N 46°12' W 123°48'0 0.0
2017-Oct-03 11:16N 46°12' W 123°48'0 0.0
2017-Oct-03 10:58N 46°12' W 123°48'0 0.0
2017-Oct-03 10:22N 46°12' W 123°48'0 0.0
2017-Oct-03 09:58N 46°12' W 123°48'0 0.0
2017-Oct-03 09:28N 46°13' W 123°48'0 0.1
2017-Oct-03 08:58N 46°13' W 123°48'0 0.0
2017-Oct-03 08:28N 46°12' W 123°48'0 0.4
2017-Oct-03 07:58N 46°13' W 123°48'0 0.2
2017-Oct-03 07:28N 46°13' W 123°48'0 0.0
2017-Oct-03 06:58N 46°13' W 123°48'0 0.0
2017-Oct-03 06:28N 46°13' W 123°48'0 0.1
2017-Oct-03 05:58N 46°13' W 123°48'0 0.0
2017-Oct-03 05:28N 46°13' W 123°48'0 0.0
2017-Oct-03 04:55N 46°13' W 123°48'0 0.0
2017-Oct-03 04:28N 46°13' W 123°48'0 0.1
2017-Oct-03 03:58N 46°13' W 123°48'0 0.4
2017-Oct-03 03:25N 46°12' W 123°48'0 0.1
2017-Oct-03 02:58N 46°12' W 123°48'0 0.0
2017-Oct-03 02:28N 46°12' W 123°48'0 0.0
2017-Oct-03 01:58N 46°12' W 123°48'0 0.1
2017-Oct-03 01:22N 46°12' W 123°48'0 0.0
2017-Oct-03 00:43N 46°12' W 123°48'0 0.0
2017-Oct-03 00:28N 46°12' W 123°48'0 0.0
2017-Oct-02 23:58N 46°12' W 123°48'0 0.0
2017-Oct-02 23:28N 46°12' W 123°48'0 0.0
2017-Oct-02 22:58N 46°12' W 123°48'0 0.0
2017-Oct-02 22:28N 46°12' W 123°48'0 0.1
2017-Oct-02 21:58N 46°12' W 123°48'0 0.0
2017-Oct-02 21:28N 46°12' W 123°48'0 0.0
2017-Oct-02 20:55N 46°13' W 123°48'0 0.3
2017-Oct-02 20:28N 46°13' W 123°48'0 0.3
2017-Oct-02 19:58N 46°13' W 123°48'0 0.1
2017-Oct-02 19:25N 46°13' W 123°48'0 0.0
2017-Oct-02 18:58N 46°13' W 123°48'0 0.1
2017-Oct-02 18:28N 46°13' W 123°48'0 0.0
2017-Oct-02 17:58N 46°13' W 123°48'0 0.0
2017-Oct-02 17:28N 46°13' W 123°48'0 0.0
2017-Oct-02 16:55N 46°13' W 123°48'0 0.0
2017-Oct-02 16:28N 46°13' W 123°48'0 0.1
2017-Oct-02 15:58N 46°13' W 123°48'0 0.3
2017-Oct-02 15:28N 46°12' W 123°48'0 0.3
2017-Oct-02 14:58N 46°12' W 123°48'0 0.0
2017-Oct-02 14:28N 46°12' W 123°48'0 0.1
2017-Oct-02 13:37N 46°12' W 123°48'0 0.0
2017-Oct-02 13:28N 46°12' W 123°48'0 0.0
2017-Oct-02 12:58N 46°12' W 123°48'0 0.0
2017-Oct-02 12:28N 46°12' W 123°48'0 0.0
2017-Oct-02 11:58N 46°12' W 123°48'0 0.0
2017-Oct-02 11:28N 46°12' W 123°48'0 0.0
2017-Oct-02 10:58N 46°12' W 123°48'0 0.0
2017-Oct-02 10:28N 46°12' W 123°48'0 0.0
2017-Oct-02 09:58N 46°12' W 123°48'0 0.0
2017-Oct-02 09:28N 46°12' W 123°48'0 0.0
2017-Oct-02 08:58N 46°12' W 123°48'0 0.0
2017-Oct-02 08:28N 46°12' W 123°48'0 0.0
2017-Oct-02 07:58N 46°13' W 123°48'0 0.4
2017-Oct-02 07:25N 46°13' W 123°48'0 0.2
2017-Oct-02 06:58N 46°13' W 123°48'0 0.1
2017-Oct-02 06:28N 46°13' W 123°48'0 0.0
2017-Oct-02 05:58N 46°13' W 123°48'0 0.0
2017-Oct-02 04:55N 46°13' W 123°48'0 0.0
2017-Oct-02 04:28N 46°13' W 123°48'0 0.0
2017-Oct-02 03:58N 46°13' W 123°48'0 0.0
2017-Oct-02 03:22N 46°13' W 123°48'0 0.0
2017-Oct-02 02:58N 46°13' W 123°48'0 0.1
2017-Oct-02 02:28N 46°13' W 123°48'0 0.2
2017-Oct-02 01:52N 46°12' W 123°48'0 0.2
2017-Oct-02 01:25N 46°12' W 123°48'0 0.0
2017-Oct-02 00:34N 46°12' W 123°48'0 0.0
2017-Oct-02 00:25N 46°12' W 123°48'0 0.0
2017-Oct-01 23:58N 46°12' W 123°48'0 0.1
2017-Oct-01 23:25N 46°13' W 123°48'0 0.1
2017-Oct-01 22:58N 46°12' W 123°48'0 0.1
2017-Oct-01 22:19N 46°12' W 123°48'0 0.1
2017-Oct-01 21:25N 46°12' W 123°48'0 0.4
2017-Oct-01 20:52N 46°12' W 123°48'0 0.3
2017-Oct-01 20:28N 46°13' W 123°48'0 0.0
2017-Oct-01 19:58N 46°13' W 123°48'0 0.0
2017-Oct-01 19:04N 46°13' W 123°48'0 0.1
2017-Oct-01 18:58N 46°13' W 123°48'0 0.1
2017-Oct-01 18:28N 46°13' W 123°48'0 0.0
2017-Oct-01 17:58N 46°13' W 123°48'0 0.1
2017-Oct-01 17:28N 46°13' W 123°48'0 0.0
2017-Oct-01 16:58N 46°13' W 123°48'0 0.0
2017-Oct-01 16:25N 46°13' W 123°48'0 0.1
2017-Oct-01 15:55N 46°13' W 123°48'0 0.1
2017-Oct-01 15:25N 46°13' W 123°48'0 0.1
2017-Oct-01 14:58N 46°13' W 123°48'0 0.3
2017-Oct-01 14:28N 46°12' W 123°48'0 0.2
2017-Oct-01 13:55N 46°12' W 123°48'0 0.0
2017-Oct-01 13:28N 46°12' W 123°48'0 0.1
2017-Oct-01 12:58N 46°12' W 123°48'0 0.0
2017-Oct-01 12:28N 46°12' W 123°48'0 0.0
2017-Oct-01 11:58N 46°12' W 123°48'0 0.0
2017-Oct-01 11:28N 46°12' W 123°48'0 0.0
2017-Oct-01 10:58N 46°12' W 123°48'0 0.0
2017-Oct-01 10:28N 46°12' W 123°48'0 0.0
2017-Oct-01 09:58N 46°12' W 123°48'0 0.0
2017-Oct-01 09:28N 46°12' W 123°48'0 0.0
2017-Oct-01 08:58N 46°12' W 123°48'0 0.1
2017-Oct-01 08:28N 46°12' W 123°48'0 0.0
2017-Oct-01 07:58N 46°12' W 123°48'0 0.1
2017-Oct-01 07:28N 46°13' W 123°48'0 0.1
2017-Oct-01 06:58N 46°12' W 123°48'0 0.3
2017-Oct-01 06:22N 46°12' W 123°48'0 0.4
2017-Oct-01 05:58N 46°12' W 123°48'0 0.1
2017-Oct-01 05:28N 46°13' W 123°48'0 0.1
2017-Oct-01 04:58N 46°13' W 123°48'0 0.0
2017-Oct-01 04:28N 46°13' W 123°48'0 0.0
2017-Oct-01 03:58N 46°13' W 123°48'0 0.1
2017-Oct-01 03:07N 46°13' W 123°48'0 0.3
2017-Oct-01 02:55N 46°13' W 123°48'  

Dump ship's entire track history